Terminal Aerodrome Forecast
Issued by NWS Cleveland, OH

Home | Current Version | Previous Version | Graphics & Text | Print | Product List | Glossary On
Versions: 1 2 3 4 5 6 7 8 9 10 11 12 13 14 15 16 17 18 19 20 21 22 23 24 25 26 27 28 29
000
FTUS41 KCLE 150500
TAFYNG
TAF
KYNG 150528Z 1506/1606 22003KT 1/2SM -DZ FG VV002
      TEMPO 1506/1510 1SM -DZ BR OVC004
     FM151500 16003KT 1SM BR OVC004
     FM152100 13003KT 3SM BR BKN012 OVC040=

USA.gov is the U.S. government's official web portal to all federal, state and local government web resources and services.